createdAt,value
2019-05-11T00:00:56.299Z,6.20
2019-05-11T00:01:56.221Z,6.20
2019-05-11T00:02:56.206Z,6.21
2019-05-11T00:03:56.207Z,6.21
2019-05-11T00:04:56.188Z,6.24
2019-05-11T00:05:56.169Z,6.24
2019-05-11T00:06:56.198Z,6.28
2019-05-11T00:07:56.147Z,6.32
2019-05-11T00:08:56.135Z,6.33
2019-05-11T00:09:58.432Z,6.36
2019-05-11T00:10:56.117Z,6.36
2019-05-11T00:11:56.108Z,6.36
2019-05-11T00:12:56.131Z,6.39
2019-05-11T00:13:56.084Z,6.40
2019-05-11T00:14:56.120Z,6.48
2019-05-11T00:15:56.125Z,6.48
2019-05-11T00:16:56.065Z,6.57
2019-05-11T00:17:56.047Z,6.69
2019-05-11T00:18:56.025Z,6.69
2019-05-11T00:19:56.015Z,6.60
2019-05-11T00:20:56.013Z,6.54
2019-05-11T00:21:56.032Z,6.51
2019-05-11T00:22:55.993Z,6.48
2019-05-11T00:23:55.969Z,6.46
2019-05-11T00:24:55.962Z,6.48
2019-05-11T00:25:55.952Z,6.46
2019-05-11T00:26:55.942Z,6.46
2019-05-11T00:27:55.962Z,6.48
2019-05-11T00:28:55.926Z,6.48
2019-05-11T00:29:55.911Z,6.48
2019-05-11T00:30:55.892Z,6.45
2019-05-11T00:31:55.921Z,6.46
2019-05-11T00:32:55.924Z,6.45
2019-05-11T00:33:55.869Z,6.46
2019-05-11T00:34:55.881Z,6.51
2019-05-11T00:35:55.841Z,6.48
2019-05-11T00:36:55.839Z,6.46
2019-05-11T00:37:55.816Z,6.43
2019-05-11T00:38:55.873Z,6.42
2019-05-11T00:39:55.793Z,6.43
2019-05-11T00:40:55.789Z,6.46
2019-05-11T00:41:55.810Z,6.48
2019-05-11T00:42:55.797Z,6.50
2019-05-11T00:43:55.762Z,6.48
2019-05-11T00:44:55.751Z,6.46
2019-05-11T00:45:55.729Z,6.50
2019-05-11T00:46:55.716Z,6.51
2019-05-11T00:47:55.706Z,6.51
2019-05-11T00:48:55.736Z,6.57
2019-05-11T00:49:55.684Z,6.57
2019-05-11T00:50:55.676Z,6.57
2019-05-11T00:51:55.668Z,6.54
2019-05-11T00:52:55.658Z,6.53
2019-05-11T00:53:55.642Z,6.53
2019-05-11T00:54:55.674Z,6.51
2019-05-11T00:55:55.617Z,6.50
2019-05-11T00:56:55.611Z,6.50
2019-05-11T00:57:55.634Z,6.46
2019-05-11T00:58:55.585Z,6.45
2019-05-11T00:59:55.572Z,6.43
2019-05-11T01:00:56.060Z,6.40
2019-05-11T01:01:55.561Z,6.39
2019-05-11T01:02:55.540Z,6.38
2019-05-11T01:03:55.534Z,6.36
2019-05-11T01:04:55.521Z,6.35
2019-05-11T01:05:55.511Z,6.33
2019-05-11T01:06:55.533Z,6.30
2019-05-11T01:07:55.492Z,6.30
2019-05-11T01:08:55.480Z,6.28
2019-05-11T01:09:55.460Z,6.27
2019-05-11T01:10:55.462Z,6.25
2019-05-11T01:11:55.444Z,6.28
2019-05-11T01:12:55.470Z,6.28
2019-05-11T01:13:55.425Z,6.27
2019-05-11T01:14:55.409Z,6.20
2019-05-11T01:15:55.419Z,6.16
2019-05-11T01:16:55.386Z,6.16
2019-05-11T01:17:55.393Z,6.20
2019-05-11T01:18:55.407Z,6.27
2019-05-11T01:19:55.359Z,6.28
2019-05-11T01:20:55.349Z,6.30
2019-05-11T01:21:55.334Z,6.27
2019-05-11T01:22:55.326Z,6.27
2019-05-11T01:23:55.316Z,6.25
2019-05-11T01:24:55.336Z,6.27
2019-05-11T01:25:55.295Z,6.27
2019-05-11T01:26:55.286Z,6.24
2019-05-11T01:27:55.265Z,6.21
2019-05-11T01:28:55.257Z,6.17
2019-05-11T01:29:55.284Z,6.16
2019-05-11T01:30:55.233Z,6.16
2019-05-11T01:31:55.224Z,6.16
2019-05-11T01:32:55.212Z,6.14
2019-05-11T01:33:55.205Z,6.10
2019-05-11T01:34:55.234Z,6.08
2019-05-11T01:35:55.175Z,6.06
2019-05-11T01:36:55.202Z,6.05
2019-05-11T01:37:55.153Z,6.02
2019-05-11T01:38:55.143Z,6.02
2019-05-11T01:39:55.133Z,6.03
2019-05-11T01:40:58.905Z,6.03
2019-05-11T01:41:55.113Z,6.03
2019-05-11T01:42:55.142Z,6.05
2019-05-11T01:43:55.094Z,6.05
2019-05-11T01:44:55.143Z,6.03
2019-05-11T01:45:55.071Z,6.02
2019-05-11T01:46:55.106Z,6.02
2019-05-11T01:47:55.052Z,6.02
2019-05-11T01:48:55.032Z,6.05
2019-05-11T01:49:55.020Z,6.03
2019-05-11T01:50:55.010Z,6.05
2019-05-11T01:51:55.075Z,6.05
2019-05-11T01:52:55.025Z,6.06
2019-05-11T01:53:54.978Z,6.10
2019-05-11T01:54:54.982Z,6.10
2019-05-11T01:55:54.970Z,6.10
2019-05-11T01:56:54.948Z,6.08
2019-05-11T01:57:54.966Z,6.08
2019-05-11T01:58:54.968Z,6.08
2019-05-11T01:59:54.908Z,6.10
2019-05-11T02:00:54.912Z,6.11
2019-05-11T02:01:54.887Z,6.13
2019-05-11T02:02:54.890Z,6.14
2019-05-11T02:03:54.883Z,6.20
2019-05-11T02:04:54.901Z,6.28
2019-05-11T02:05:54.856Z,6.30
2019-05-11T02:06:54.854Z,6.28
2019-05-11T02:07:54.827Z,6.28
2019-05-11T02:08:54.824Z,6.28
2019-05-11T02:09:54.837Z,6.28
2019-05-11T02:10:54.795Z,6.32
2019-05-11T02:11:54.784Z,6.32
2019-05-11T02:12:54.773Z,6.33
2019-05-11T02:13:54.785Z,6.39
2019-05-11T02:14:54.770Z,6.40
2019-05-11T02:15:54.784Z,6.40
2019-05-11T02:16:54.735Z,6.40
2019-05-11T02:17:54.714Z,6.40
2019-05-11T02:18:54.711Z,6.43
2019-05-11T02:19:54.739Z,6.46
2019-05-11T02:20:54.682Z,6.46
2019-05-11T02:21:54.712Z,6.50
2019-05-11T02:22:54.677Z,6.50
2019-05-11T02:23:54.654Z,6.51
2019-05-11T02:24:54.642Z,6.51
2019-05-11T02:25:54.632Z,6.53
2019-05-11T02:26:54.619Z,6.53
2019-05-11T02:27:54.653Z,6.50
2019-05-11T02:28:54.597Z,6.50
2019-05-11T02:29:54.624Z,6.45
2019-05-11T02:30:54.612Z,6.42
2019-05-11T02:31:54.565Z,6.36
2019-05-11T02:32:54.596Z,6.32
2019-05-11T02:33:54.546Z,6.27
2019-05-11T02:34:54.534Z,6.21
2019-05-11T02:35:54.517Z,6.19
2019-05-11T02:36:54.553Z,6.19
2019-05-11T02:37:54.502Z,6.16
2019-05-11T02:38:54.492Z,6.13
2019-05-11T02:39:54.479Z,6.11
2019-05-11T02:40:54.469Z,6.11
2019-05-11T02:41:54.457Z,6.13
2019-05-11T02:42:54.585Z,6.10
2019-05-11T02:43:54.436Z,6.10
2019-05-11T02:44:54.428Z,6.10
2019-05-11T02:45:54.406Z,6.10
2019-05-11T02:46:54.431Z,6.11
2019-05-11T02:47:54.388Z,6.13
2019-05-11T02:48:54.416Z,6.10
2019-05-11T02:49:54.355Z,6.05
2019-05-11T02:50:54.355Z,6.02
2019-05-11T02:51:54.351Z,6.01
2019-05-11T02:52:54.326Z,5.98
2019-05-11T02:53:54.362Z,6.03
2019-05-11T02:54:54.327Z,6.06
2019-05-11T02:55:54.295Z,6.10
2019-05-11T02:56:54.312Z,6.13
2019-05-11T02:57:54.272Z,6.11
2019-05-11T02:58:54.274Z,6.10
2019-05-11T02:59:54.292Z,6.05
2019-05-11T03:00:54.259Z,6.05
2019-05-11T03:01:54.230Z,6.02
2019-05-11T03:02:54.222Z,5.99
2019-05-11T03:03:54.224Z,6.01
2019-05-11T03:04:54.198Z,6.03
2019-05-11T03:05:54.225Z,6.05
2019-05-11T03:06:54.220Z,6.11
2019-05-11T03:07:54.162Z,6.43
2019-05-11T03:08:54.156Z,6.35
2019-05-11T03:09:54.143Z,6.17
2019-05-11T03:10:54.130Z,6.05
2019-05-11T03:11:56.284Z,6.01
2019-05-11T03:12:54.165Z,6.17
2019-05-11T03:13:54.099Z,6.20
2019-05-11T03:14:54.107Z,6.21
2019-05-11T03:15:54.078Z,6.17
2019-05-11T03:16:54.080Z,6.13
2019-05-11T03:17:54.058Z,6.16
2019-05-11T03:18:54.089Z,6.16
2019-05-11T03:19:54.061Z,6.16
2019-05-11T03:20:54.020Z,6.16
2019-05-11T03:21:54.017Z,6.19
2019-05-11T03:22:54.019Z,6.13
2019-05-11T03:23:53.993Z,5.99
2019-05-11T03:24:54.016Z,5.92
2019-05-11T03:25:53.966Z,5.88
2019-05-11T03:26:53.946Z,5.85
2019-05-11T03:27:53.944Z,5.84
2019-05-11T03:28:53.946Z,5.80
2019-05-11T03:29:53.954Z,5.81
2019-05-11T03:30:53.930Z,5.83
2019-05-11T03:31:53.907Z,5.84
2019-05-11T03:32:53.902Z,5.84
2019-05-11T03:33:53.893Z,5.84
2019-05-11T03:34:53.884Z,5.84
2019-05-11T03:35:53.905Z,5.93
2019-05-11T03:36:53.844Z,5.96
2019-05-11T03:37:53.834Z,5.96
2019-05-11T03:38:53.824Z,5.99
2019-05-11T03:39:53.811Z,6.02
2019-05-11T03:40:53.845Z,6.02
2019-05-11T03:41:53.784Z,5.98
2019-05-11T03:42:53.792Z,6.02
2019-05-11T03:43:53.802Z,6.01
2019-05-11T03:44:53.773Z,6.03
2019-05-11T03:45:53.752Z,6.14
2019-05-11T03:46:53.759Z,6.25
2019-05-11T03:47:53.723Z,6.36
2019-05-11T03:48:53.740Z,6.33
2019-05-11T03:49:53.737Z,6.28
2019-05-11T03:50:53.742Z,6.25
2019-05-11T03:51:53.679Z,6.27
2019-05-11T03:52:53.668Z,6.25
2019-05-11T03:53:53.656Z,6.28
2019-05-11T03:54:53.654Z,6.32
2019-05-11T03:55:53.657Z,6.33
2019-05-11T03:56:53.674Z,6.48
2019-05-11T03:57:53.640Z,6.57
2019-05-11T03:58:53.606Z,6.54
2019-05-11T03:59:53.606Z,6.57
2019-05-11T04:00:53.637Z,6.60
2019-05-11T04:01:53.568Z,6.63
2019-05-11T04:02:53.566Z,6.64
2019-05-11T04:03:53.563Z,6.68
2019-05-11T04:04:53.559Z,6.69
2019-05-11T04:05:53.539Z,6.65
2019-05-11T04:06:53.555Z,6.63
2019-05-11T04:07:53.525Z,6.58
2019-05-11T04:08:53.493Z,6.53
2019-05-11T04:09:53.484Z,6.51
2019-05-11T04:10:53.490Z,6.53
2019-05-11T04:11:53.484Z,6.58
2019-05-11T04:12:53.495Z,6.65
2019-05-11T04:13:53.435Z,6.75
2019-05-11T04:14:53.426Z,6.82
2019-05-11T04:15:53.428Z,6.89
2019-05-11T04:16:53.409Z,6.90
2019-05-11T04:17:53.394Z,6.90
2019-05-11T04:18:53.435Z,6.93
2019-05-11T04:19:53.381Z,6.91
2019-05-11T04:20:53.361Z,6.69
2019-05-11T04:21:53.358Z,6.55
2019-05-11T04:22:53.333Z,6.51
2019-05-11T04:23:53.342Z,6.50
2019-05-11T04:24:53.358Z,6.50
2019-05-11T04:25:53.307Z,6.48
2019-05-11T04:26:53.293Z,6.50
2019-05-11T04:27:53.280Z,6.48
2019-05-11T04:28:53.268Z,6.50
2019-05-11T04:29:53.279Z,6.51
2019-05-11T04:30:53.287Z,6.53
2019-05-11T04:31:53.289Z,6.53
2019-05-11T04:32:53.256Z,6.58
2019-05-11T04:33:53.212Z,6.64
2019-05-11T04:34:53.227Z,6.69
2019-05-11T04:35:53.188Z,6.72
2019-05-11T04:36:53.206Z,6.78
2019-05-11T04:37:53.232Z,6.81
2019-05-11T04:38:53.156Z,6.82
2019-05-11T04:39:53.161Z,6.82
2019-05-11T04:40:53.142Z,6.86
2019-05-11T04:41:53.145Z,6.87
2019-05-11T04:42:55.740Z,6.82
2019-05-11T04:43:53.151Z,6.81
2019-05-11T04:44:53.092Z,6.81
2019-05-11T04:45:53.092Z,6.81
2019-05-11T04:46:53.085Z,6.81
2019-05-11T04:47:53.097Z,6.81
2019-05-11T04:48:53.076Z,6.82
2019-05-11T04:49:53.069Z,6.83
2019-05-11T04:50:53.025Z,6.86
2019-05-11T04:51:53.037Z,6.90
2019-05-11T04:52:53.023Z,6.93
2019-05-11T04:53:53.038Z,6.97
2019-05-11T04:54:52.989Z,7.04
2019-05-11T04:55:52.971Z,7.04
2019-05-11T04:56:52.976Z,7.07
2019-05-11T04:57:52.965Z,7.11
2019-05-11T04:58:53.002Z,7.14
2019-05-11T04:59:52.961Z,7.19
2019-05-11T05:00:52.922Z,7.21
2019-05-11T05:01:52.943Z,7.23
2019-05-11T05:02:52.895Z,7.24
2019-05-11T05:03:54.252Z,7.30
2019-05-11T05:04:52.871Z,7.32
2019-05-11T05:05:52.917Z,7.33
2019-05-11T05:06:59.961Z,7.34
2019-05-11T05:08:07.470Z,7.36
2019-05-11T05:08:58.084Z,7.32
2019-05-11T05:09:53.819Z,7.29
2019-05-11T05:10:58.655Z,7.30
2019-05-11T05:11:53.858Z,7.33
2019-05-11T05:12:53.378Z,7.39
2019-05-11T05:13:53.840Z,7.41
2019-05-11T05:14:52.764Z,7.45
2019-05-11T05:15:52.755Z,7.50
2019-05-11T05:16:52.756Z,7.52
2019-05-11T05:17:52.792Z,7.55
2019-05-11T05:18:52.729Z,7.58
2019-05-11T05:19:52.746Z,7.62
2019-05-11T05:20:52.765Z,7.66
2019-05-11T05:21:52.686Z,7.70
2019-05-11T05:22:52.678Z,7.73
2019-05-11T05:23:52.665Z,7.76
2019-05-11T05:24:52.664Z,7.81
2019-05-11T05:25:52.684Z,7.86
2019-05-11T05:26:52.635Z,7.92
2019-05-11T05:27:52.634Z,8.03
2019-05-11T05:28:52.623Z,8.07
2019-05-11T05:29:52.605Z,8.06
2019-05-11T05:30:52.596Z,8.04
2019-05-11T05:31:52.623Z,8.04
2019-05-11T05:32:52.574Z,8.04
2019-05-11T05:33:52.562Z,8.03
2019-05-11T05:34:52.568Z,8.06
2019-05-11T05:35:52.545Z,8.10
2019-05-11T05:36:52.548Z,8.22
2019-05-11T05:37:52.551Z,8.31
2019-05-11T05:38:52.514Z,8.32
2019-05-11T05:39:52.502Z,8.34
2019-05-11T05:40:52.491Z,8.31
2019-05-11T05:41:57.295Z,8.27
2019-05-11T05:42:53.507Z,8.28
2019-05-11T05:43:52.468Z,8.31
2019-05-11T05:44:52.457Z,8.37
2019-05-11T05:45:52.429Z,8.46
2019-05-11T05:46:52.427Z,8.61
2019-05-11T05:47:52.408Z,8.82
2019-05-11T05:48:52.439Z,9.00
2019-05-11T05:49:52.396Z,9.20
2019-05-11T05:50:52.401Z,9.35
2019-05-11T05:51:52.370Z,9.38
2019-05-11T05:52:52.348Z,9.41
2019-05-11T05:53:52.352Z,9.42
2019-05-11T05:54:52.394Z,9.44
2019-05-11T05:55:52.317Z,9.53
2019-05-11T05:56:52.317Z,9.62
2019-05-11T05:57:52.307Z,9.60
2019-05-11T05:58:52.303Z,9.49
2019-05-11T05:59:52.275Z,9.53
2019-05-11T06:00:52.307Z,9.60
2019-05-11T06:01:52.281Z,9.63
2019-05-11T06:02:52.253Z,9.70
2019-05-11T06:03:52.235Z,9.77
2019-05-11T06:04:52.281Z,9.77
2019-05-11T06:05:52.217Z,9.75
2019-05-11T06:06:52.280Z,9.77
2019-05-11T06:07:52.228Z,9.77
2019-05-11T06:08:52.176Z,9.80
2019-05-11T06:09:52.168Z,9.81
2019-05-11T06:10:52.154Z,9.83
2019-05-11T06:11:52.146Z,9.89
2019-05-11T06:12:52.141Z,9.91
2019-05-11T06:13:52.235Z,9.92
2019-05-11T06:14:52.156Z,9.98
2019-05-11T06:15:52.093Z,10.02
2019-05-11T06:16:52.086Z,10.11
2019-05-11T06:17:52.073Z,10.18
2019-05-11T06:18:52.072Z,10.25
2019-05-11T06:19:52.086Z,10.31
2019-05-11T06:20:52.061Z,10.35
2019-05-11T06:21:52.046Z,10.35
2019-05-11T06:22:52.035Z,10.38
2019-05-11T06:23:52.013Z,10.38
2019-05-11T06:24:51.996Z,10.32
2019-05-11T06:25:52.034Z,10.26
2019-05-11T06:26:51.972Z,10.25
2019-05-11T06:27:51.973Z,10.18
2019-05-11T06:28:51.970Z,9.96
2019-05-11T06:29:51.940Z,9.71
2019-05-11T06:30:51.939Z,9.55
2019-05-11T06:31:52.057Z,9.38
2019-05-11T06:32:51.912Z,9.32
2019-05-11T06:33:51.936Z,9.35
2019-05-11T06:34:51.927Z,9.38
2019-05-11T06:35:51.884Z,9.41
2019-05-11T06:36:51.869Z,9.41
2019-05-11T06:37:51.872Z,9.50
2019-05-11T06:38:51.853Z,9.59
2019-05-11T06:39:51.828Z,9.71
2019-05-11T06:40:51.867Z,9.71
2019-05-11T06:41:51.833Z,9.63
2019-05-11T06:42:51.854Z,9.58
2019-05-11T06:44:01.489Z,9.55
2019-05-11T06:44:52.777Z,9.60
2019-05-11T06:45:51.820Z,9.70
2019-05-11T06:46:51.825Z,9.78
2019-05-11T06:47:51.754Z,9.83
2019-05-11T06:48:51.747Z,9.78
2019-05-11T06:49:51.738Z,9.75
2019-05-11T06:50:51.715Z,9.60
2019-05-11T06:51:51.745Z,9.53
2019-05-11T06:52:51.714Z,9.52
2019-05-11T06:53:51.688Z,9.56
2019-05-11T06:54:51.675Z,9.60
2019-05-11T06:55:51.718Z,9.59
2019-05-11T06:56:51.654Z,9.55
2019-05-11T06:57:51.706Z,9.49
2019-05-11T06:58:51.633Z,9.50
2019-05-11T06:59:51.622Z,9.53
2019-05-11T07:00:51.616Z,9.60
2019-05-11T07:01:51.604Z,9.67
2019-05-11T07:02:51.591Z,9.88
2019-05-11T07:03:51.608Z,10.11
2019-05-11T07:04:51.562Z,10.25
2019-05-11T07:05:51.553Z,10.35
2019-05-11T07:06:51.542Z,10.34
2019-05-11T07:07:51.528Z,10.29
2019-05-11T07:08:51.521Z,10.25
2019-05-11T07:09:51.554Z,10.18
2019-05-11T07:10:51.493Z,10.17
2019-05-11T07:11:51.529Z,10.13
2019-05-11T07:12:51.484Z,10.09
2019-05-11T07:13:51.478Z,10.07
2019-05-11T07:14:51.487Z,10.04
2019-05-11T07:15:51.526Z,10.07
2019-05-11T07:16:51.435Z,10.07
2019-05-11T07:17:51.490Z,10.16
2019-05-11T07:18:51.409Z,10.22
2019-05-11T07:19:51.391Z,10.32
2019-05-11T07:20:51.389Z,10.44
2019-05-11T07:21:51.419Z,10.69
2019-05-11T07:22:51.367Z,11.51
2019-05-11T07:23:51.358Z,12.00
2019-05-11T07:24:51.385Z,12.22
2019-05-11T07:25:51.329Z,11.88
2019-05-11T07:26:51.320Z,11.93
2019-05-11T07:27:51.446Z,11.70
2019-05-11T07:28:51.327Z,11.63
2019-05-11T07:29:51.294Z,11.63
2019-05-11T07:30:51.296Z,11.67
2019-05-11T07:31:51.280Z,11.67
2019-05-11T07:32:51.316Z,11.66
2019-05-11T07:33:51.247Z,11.57
2019-05-11T07:34:51.261Z,11.48
2019-05-11T07:35:51.225Z,11.41
2019-05-11T07:36:51.214Z,11.42
2019-05-11T07:37:51.202Z,11.33
2019-05-11T07:38:51.225Z,11.23
2019-05-11T07:39:51.185Z,11.24
2019-05-11T07:40:51.172Z,11.21
2019-05-11T07:41:51.164Z,11.20
2019-05-11T07:42:51.152Z,11.09
2019-05-11T07:43:51.164Z,11.08
2019-05-11T07:44:51.124Z,11.03
2019-05-11T07:45:51.128Z,10.94
2019-05-11T07:46:51.102Z,10.91
2019-05-11T07:47:51.142Z,10.93
2019-05-11T07:48:51.088Z,10.73
2019-05-11T07:49:51.073Z,10.75
2019-05-11T07:50:51.061Z,10.68
2019-05-11T07:51:51.052Z,10.49
2019-05-11T07:52:51.034Z,10.46
2019-05-11T07:53:51.072Z,10.46
2019-05-11T07:54:52.959Z,10.28
2019-05-11T07:55:51.004Z,10.25
2019-05-11T07:56:51.000Z,10.32
2019-05-11T07:57:50.980Z,10.39
2019-05-11T07:58:50.971Z,10.32
2019-05-11T07:59:51.010Z,10.26
2019-05-11T08:00:50.957Z,10.24
2019-05-11T08:01:50.939Z,10.26
2019-05-11T08:02:50.943Z,10.25
2019-05-11T08:03:50.915Z,10.35
2019-05-11T08:04:50.902Z,10.39
2019-05-11T08:05:50.931Z,10.47
2019-05-11T08:06:50.882Z,10.47
2019-05-11T08:07:50.878Z,10.42
2019-05-11T08:08:50.860Z,10.42
2019-05-11T08:09:50.860Z,10.32
2019-05-11T08:10:50.889Z,10.26
2019-05-11T08:11:50.829Z,10.14
2019-05-11T08:12:50.819Z,10.13
2019-05-11T08:13:50.801Z,10.16
2019-05-11T08:14:58.897Z,10.20
2019-05-11T08:15:51.826Z,10.24
2019-05-11T08:16:50.807Z,10.29
2019-05-11T08:17:50.767Z,10.26
2019-05-11T08:18:50.774Z,10.25
2019-05-11T08:19:50.738Z,10.22
2019-05-11T08:20:50.750Z,10.24
2019-05-11T08:21:50.787Z,10.26
2019-05-11T08:22:50.709Z,10.29
2019-05-11T08:23:50.706Z,10.29
2019-05-11T08:24:50.689Z,10.25
2019-05-11T08:25:54.120Z,10.26
2019-05-11T08:26:50.674Z,10.25
2019-05-11T08:27:50.695Z,10.24
2019-05-11T08:28:50.649Z,10.22
2019-05-11T08:29:50.634Z,10.31
2019-05-11T08:30:50.626Z,10.35
2019-05-11T08:31:50.605Z,10.38
2019-05-11T08:32:50.603Z,10.39
2019-05-11T08:33:50.637Z,10.36
2019-05-11T08:34:50.576Z,10.42
2019-05-11T08:35:50.577Z,10.54
2019-05-11T08:36:50.555Z,10.60
2019-05-11T08:37:50.550Z,10.65
2019-05-11T08:38:50.533Z,10.73
2019-05-11T08:39:50.561Z,10.81
2019-05-11T08:40:50.523Z,10.87
2019-05-11T08:41:50.504Z,10.99
2019-05-11T08:42:50.503Z,11.06
2019-05-11T08:43:50.501Z,11.16
2019-05-11T08:44:50.473Z,11.30
2019-05-11T08:45:50.502Z,11.38
2019-05-11T08:46:50.443Z,11.39
2019-05-11T08:47:50.450Z,11.24
2019-05-11T08:48:50.431Z,11.19
2019-05-11T08:49:50.433Z,10.88
2019-05-11T08:50:50.403Z,10.73
2019-05-11T08:51:50.450Z,10.73
2019-05-11T08:52:50.381Z,10.68
2019-05-11T08:53:50.381Z,10.58
2019-05-11T08:54:50.361Z,10.69
2019-05-11T08:55:50.360Z,10.73
2019-05-11T08:56:50.342Z,10.76
2019-05-11T08:57:50.362Z,10.76
2019-05-11T08:58:50.324Z,10.58
2019-05-11T08:59:50.306Z,10.52
2019-05-11T09:00:50.311Z,10.49
2019-05-11T09:01:50.291Z,10.54
2019-05-11T09:02:51.090Z,10.63
2019-05-11T09:03:50.319Z,10.70
2019-05-11T09:04:50.249Z,10.78
2019-05-11T09:05:50.242Z,10.84
2019-05-11T09:06:50.233Z,10.88
2019-05-11T09:07:50.221Z,10.84
2019-05-11T09:08:50.207Z,10.93
2019-05-11T09:09:50.237Z,10.93
2019-05-11T09:10:50.199Z,10.98
2019-05-11T09:11:50.178Z,11.02
2019-05-11T09:12:50.177Z,11.01
2019-05-11T09:13:50.148Z,10.94
2019-05-11T09:14:50.144Z,10.95
2019-05-11T09:15:50.165Z,11.02
2019-05-11T09:16:50.134Z,10.95
2019-05-11T09:17:50.107Z,10.91
2019-05-11T09:18:50.094Z,10.87
2019-05-11T09:19:50.123Z,10.84
2019-05-11T09:20:50.083Z,10.80
2019-05-11T09:21:50.075Z,10.69
2019-05-11T09:22:50.053Z,10.57
2019-05-11T09:23:50.056Z,10.47
2019-05-11T09:24:50.065Z,10.34
2019-05-11T09:25:50.015Z,10.24
2019-05-11T09:26:50.015Z,10.24
2019-05-11T09:27:49.997Z,10.14
2019-05-11T09:28:50.054Z,10.16
2019-05-11T09:29:49.972Z,10.14
2019-05-11T09:30:49.965Z,10.13
2019-05-11T09:31:49.954Z,10.13
2019-05-11T09:32:49.950Z,10.14
2019-05-11T09:33:49.933Z,10.14
2019-05-11T09:34:49.962Z,10.11
2019-05-11T09:35:53.266Z,10.10
2019-05-11T09:36:49.903Z,10.02
2019-05-11T09:37:49.884Z,9.93
2019-05-11T09:38:49.882Z,9.81
2019-05-11T09:39:49.866Z,9.65
2019-05-11T09:40:49.901Z,9.60
2019-05-11T09:41:49.851Z,9.48
2019-05-11T09:42:49.833Z,9.31
2019-05-11T09:43:49.822Z,9.17
2019-05-11T09:44:49.811Z,9.06
2019-05-11T09:45:51.979Z,8.97
2019-05-11T09:46:49.828Z,9.00
2019-05-11T09:47:49.823Z,8.96
2019-05-11T09:48:49.771Z,8.96
2019-05-11T09:49:51.056Z,8.80
2019-05-11T09:50:49.748Z,8.78
2019-05-11T09:51:49.742Z,8.79
2019-05-11T09:52:49.759Z,8.78
2019-05-11T09:53:49.719Z,8.76
2019-05-11T09:54:49.711Z,8.79
2019-05-11T09:55:49.700Z,8.80
2019-05-11T09:56:49.679Z,8.80
2019-05-11T09:57:49.681Z,8.85
2019-05-11T09:58:49.689Z,8.89
2019-05-11T09:59:49.639Z,8.88
2019-05-11T10:00:49.639Z,8.96
2019-05-11T10:01:49.628Z,9.00
2019-05-11T10:02:49.619Z,9.04
2019-05-11T10:03:49.636Z,9.06
2019-05-11T10:04:49.588Z,9.19
2019-05-11T10:05:49.576Z,9.30
2019-05-11T10:06:49.575Z,9.27
2019-05-11T10:07:49.597Z,9.32
2019-05-11T10:08:49.549Z,9.40
2019-05-11T10:09:49.584Z,9.42
2019-05-11T10:10:49.524Z,9.40
2019-05-11T10:11:49.520Z,9.38
2019-05-11T10:12:52.640Z,9.24
2019-05-11T10:13:49.525Z,9.12
2019-05-11T10:14:49.485Z,9.04
2019-05-11T10:16:03.421Z,9.08
2019-05-11T10:16:50.467Z,9.10
2019-05-11T10:17:49.445Z,9.16
2019-05-11T10:18:49.497Z,9.20
2019-05-11T10:19:49.803Z,9.22
2019-05-11T10:20:49.421Z,9.19
2019-05-11T10:21:49.407Z,9.24
2019-05-11T10:22:49.403Z,9.23
2019-05-11T10:23:49.423Z,9.24
2019-05-11T10:24:49.366Z,9.19
2019-05-11T10:25:49.362Z,9.15
2019-05-11T10:26:49.343Z,9.13
2019-05-11T10:27:49.334Z,9.13
2019-05-11T10:28:49.367Z,9.12
2019-05-11T10:29:49.312Z,9.17
2019-05-11T10:30:49.303Z,9.17
2019-05-11T10:31:49.290Z,9.16
2019-05-11T10:32:49.294Z,9.13
2019-05-11T10:33:49.313Z,9.13
2019-05-11T10:34:49.312Z,9.16
2019-05-11T10:35:49.255Z,9.20
2019-05-11T10:36:49.241Z,9.20
2019-05-11T10:37:49.224Z,9.17
2019-05-11T10:38:49.212Z,9.12
2019-05-11T10:39:49.201Z,9.12
2019-05-11T10:40:49.233Z,9.17
2019-05-11T10:41:49.184Z,9.23
2019-05-11T10:42:49.173Z,9.26
2019-05-11T10:43:49.330Z,9.23
2019-05-11T10:44:49.148Z,9.19
2019-05-11T10:45:49.133Z,9.17
2019-05-11T10:46:49.163Z,9.16
2019-05-11T10:47:49.226Z,9.20
2019-05-11T10:48:49.101Z,9.20
2019-05-11T10:49:49.092Z,9.23
2019-05-11T10:50:49.086Z,9.24
2019-05-11T10:51:49.082Z,9.26
2019-05-11T10:52:49.097Z,9.26
2019-05-11T10:53:51.974Z,9.34
2019-05-11T10:54:49.031Z,9.41
2019-05-11T10:55:49.026Z,9.44
2019-05-11T10:56:49.017Z,9.41
2019-05-11T10:57:49.014Z,9.44
2019-05-11T10:58:49.028Z,9.50
2019-05-11T10:59:49.071Z,9.58
2019-05-11T11:00:48.979Z,9.59
2019-05-11T11:01:48.996Z,9.68
2019-05-11T11:02:48.985Z,9.73
2019-05-11T11:03:48.967Z,9.80
2019-05-11T11:04:48.927Z,9.78
2019-05-11T11:05:48.933Z,9.83
2019-05-11T11:06:48.916Z,9.75
2019-05-11T11:07:48.914Z,9.85
2019-05-11T11:08:48.964Z,9.78
2019-05-11T11:09:49.191Z,9.85
2019-05-11T11:10:48.921Z,9.88
2019-05-11T11:11:49.030Z,9.88
2019-05-11T11:12:49.185Z,9.88
2019-05-11T11:13:48.863Z,9.92
2019-05-11T11:14:48.816Z,9.77
2019-05-11T11:15:48.813Z,9.75
2019-05-11T11:16:48.798Z,9.68
2019-05-11T11:17:48.839Z,9.68
2019-05-11T11:18:48.863Z,9.73
2019-05-11T11:19:48.856Z,9.78
2019-05-11T11:20:49.024Z,9.88
2019-05-11T11:21:48.918Z,9.92
2019-05-11T11:22:48.811Z,9.93
2019-05-11T11:23:48.740Z,9.96
2019-05-11T11:24:48.702Z,9.93
2019-05-11T11:25:48.762Z,9.89
2019-05-11T11:26:48.819Z,10.07
2019-05-11T11:27:48.953Z,10.22
2019-05-11T11:28:48.660Z,10.43
2019-05-11T11:29:48.681Z,10.46
2019-05-11T11:30:48.681Z,10.49
2019-05-11T11:31:48.627Z,10.47
2019-05-11T11:32:48.632Z,10.49
2019-05-11T11:33:49.034Z,10.57
2019-05-11T11:34:48.610Z,10.72
2019-05-11T11:35:48.593Z,10.73
2019-05-11T11:36:48.610Z,10.72
2019-05-11T11:37:48.566Z,10.73
2019-05-11T11:38:48.550Z,10.88
2019-05-11T11:39:48.539Z,11.05
2019-05-11T11:40:48.535Z,11.28
2019-05-11T11:41:48.766Z,11.11
2019-05-11T11:42:48.548Z,10.83
2019-05-11T11:43:48.609Z,11.16
2019-05-11T11:44:48.492Z,11.41
2019-05-11T11:45:48.602Z,11.36
2019-05-11T11:46:54.587Z,11.30
2019-05-11T11:47:49.640Z,11.35
2019-05-11T11:48:48.911Z,11.81
2019-05-11T11:49:48.430Z,12.22
2019-05-11T11:50:48.427Z,12.66
2019-05-11T11:51:48.635Z,12.67
2019-05-11T11:52:48.399Z,12.70
2019-05-11T11:53:48.389Z,12.26
2019-05-11T11:54:48.396Z,12.15
2019-05-11T11:55:48.386Z,12.03
2019-05-11T11:56:48.670Z,11.93
2019-05-11T11:57:49.687Z,12.15
2019-05-11T11:58:48.943Z,12.66
2019-05-11T11:59:48.373Z,12.88
2019-05-11T12:00:48.391Z,13.04
2019-05-11T12:01:48.876Z,13.07
2019-05-11T12:02:48.789Z,12.69
2019-05-11T12:03:48.951Z,12.52
2019-05-11T12:04:48.644Z,12.12
2019-05-11T12:05:48.264Z,11.67
2019-05-11T12:06:49.017Z,11.62
2019-05-11T12:07:49.088Z,11.54
2019-05-11T12:08:49.757Z,11.53
2019-05-11T12:09:48.547Z,11.48
2019-05-11T12:10:48.525Z,11.36
2019-05-11T12:11:48.634Z,11.26
2019-05-11T12:12:48.184Z,11.28
2019-05-11T12:13:48.173Z,11.41
2019-05-11T12:14:48.225Z,11.51
2019-05-11T12:15:48.383Z,11.56
2019-05-11T12:17:03.690Z,11.64
2019-05-11T12:17:49.125Z,11.54
2019-05-11T12:18:48.766Z,11.42
2019-05-11T12:19:48.131Z,11.44
2019-05-11T12:20:48.216Z,11.38
2019-05-11T12:21:48.507Z,11.42
2019-05-11T12:22:48.106Z,11.45
2019-05-11T12:23:48.760Z,11.33
2019-05-11T12:24:48.392Z,11.33
2019-05-11T12:25:48.711Z,11.26
2019-05-11T12:26:48.257Z,11.13
2019-05-11T12:27:49.127Z,11.05
2019-05-11T12:28:49.051Z,10.94
2019-05-11T12:29:47.989Z,10.91
2019-05-11T12:30:48.286Z,10.78
2019-05-11T12:31:48.528Z,10.81
2019-05-11T12:32:48.727Z,10.81
2019-05-11T12:33:48.435Z,10.70
2019-05-11T12:34:48.335Z,10.66
2019-05-11T12:35:48.238Z,10.65
2019-05-11T12:36:48.147Z,10.76
2019-05-11T12:37:48.438Z,10.86
2019-05-11T12:38:48.891Z,10.90
2019-05-11T12:39:47.964Z,10.95
2019-05-11T12:40:47.915Z,10.90
2019-05-11T12:41:48.055Z,10.84
2019-05-11T12:42:48.920Z,10.78
2019-05-11T12:43:48.882Z,10.70
2019-05-11T12:44:48.239Z,10.69
2019-05-11T12:45:48.256Z,10.65
2019-05-11T12:46:48.895Z,10.55
2019-05-11T12:47:48.139Z,10.44
2019-05-11T12:48:48.485Z,10.34
2019-05-11T12:49:48.320Z,10.25
2019-05-11T12:50:48.458Z,10.14
2019-05-11T12:51:48.775Z,9.99
2019-05-11T12:52:47.840Z,9.89
2019-05-11T12:53:47.913Z,9.75
2019-05-11T12:54:47.948Z,9.71
2019-05-11T12:55:48.354Z,9.67
2019-05-11T12:56:48.964Z,9.60
2019-05-11T12:57:48.184Z,9.56
2019-05-11T12:58:49.150Z,9.45
2019-05-11T12:59:48.765Z,9.40
2019-05-11T13:00:48.066Z,9.26
2019-05-11T13:01:48.614Z,9.04
2019-05-11T13:02:48.418Z,8.89
2019-05-11T13:03:49.328Z,8.83
2019-05-11T13:04:47.872Z,8.75
2019-05-11T13:05:48.436Z,8.76
2019-05-11T13:06:47.959Z,8.76
2019-05-11T13:07:48.119Z,8.75
2019-05-11T13:08:48.067Z,8.64
2019-05-11T13:09:48.490Z,8.45
2019-05-11T13:10:48.018Z,8.21